createdAt,value
2023-05-25T00:01:01.238Z,10.43
2023-05-25T00:06:05.713Z,7.95
2023-05-25T00:11:07.621Z,10.10
2023-05-25T00:16:09.466Z,10.40
2023-05-25T00:21:11.910Z,13.52
2023-05-25T00:26:13.754Z,9.75
2023-05-25T00:31:15.692Z,8.45
2023-05-25T00:36:17.738Z,9.25
2023-05-25T00:41:19.649Z,12.57
2023-05-25T00:46:22.555Z,15.32
2023-05-25T00:51:26.505Z,8.38
2023-05-25T00:56:35.565Z,16.42
2023-05-25T01:01:40.431Z,13.85
2023-05-25T01:06:45.959Z,14.13
2023-05-25T01:11:51.438Z,10.40
2023-05-25T01:16:55.050Z,14.00
2023-05-25T01:22:40.483Z,14.05
2023-05-25T01:27:51.774Z,12.10
2023-05-25T01:32:54.861Z,11.20
2023-05-25T01:37:59.082Z,15.60
2023-05-25T01:43:00.945Z,17.33
2023-05-25T01:48:37.089Z,14.52
2023-05-25T01:53:58.267Z,11.75
2023-05-25T01:59:03.078Z,13.90
2023-05-25T02:04:05.565Z,11.43
2023-05-25T02:09:07.416Z,11.55
2023-05-25T02:14:12.321Z,18.70
2023-05-25T02:19:17.036Z,10.23
2023-05-25T02:24:20.299Z,11.07
2023-05-25T02:29:22.141Z,14.52
2023-05-25T02:34:24.678Z,11.70
2023-05-25T02:39:27.841Z,14.45
2023-05-25T02:44:29.682Z,13.93
2023-05-25T02:49:31.465Z,14.10
2023-05-25T02:54:33.292Z,13.10
2023-05-25T02:59:35.099Z,13.73
2023-05-25T03:04:38.942Z,14.38
2023-05-25T03:09:40.872Z,11.93
2023-05-25T03:14:42.672Z,12.57
2023-05-25T03:19:44.464Z,9.55
2023-05-25T03:24:46.693Z,11.60
2023-05-25T03:29:51.888Z,10.50
2023-05-25T03:34:53.671Z,10.88
2023-05-25T03:39:55.603Z,10.95
2023-05-25T03:44:57.429Z,8.73
2023-05-25T03:49:59.256Z,12.95
2023-05-25T03:55:05.218Z,17.95
2023-05-25T04:00:08.978Z,11.88
2023-05-25T04:05:10.871Z,9.05
2023-05-25T04:10:12.720Z,13.20
2023-05-25T04:15:14.595Z,8.35
2023-05-25T04:20:16.429Z,11.95
2023-05-25T04:25:19.948Z,16.38
2023-05-25T04:30:22.111Z,13.73
2023-05-25T04:35:23.981Z,15.85
2023-05-25T04:40:28.072Z,19.30
2023-05-25T04:45:30.039Z,17.08
2023-05-25T04:50:32.108Z,13.13
2023-05-25T04:55:34.000Z,12.52
2023-05-25T05:00:36.499Z,17.00
2023-05-25T05:05:38.358Z,12.27
2023-05-25T05:10:40.184Z,9.40
2023-05-25T05:15:42.127Z,14.20
2023-05-25T05:20:44.782Z,14.57
2023-05-25T05:25:46.916Z,14.15
2023-05-25T05:30:49.135Z,17.60
2023-05-25T05:35:52.425Z,14.50
2023-05-25T05:40:54.238Z,19.63
2023-05-25T05:45:56.034Z,18.48
2023-05-25T05:50:58.092Z,17.77
2023-05-25T05:56:00.323Z,16.00
2023-05-25T06:01:03.554Z,13.65
2023-05-25T06:06:05.791Z,19.15
2023-05-25T06:11:07.720Z,16.20
2023-05-25T06:16:09.669Z,13.32
2023-05-25T06:21:12.837Z,18.90
2023-05-25T06:26:15.127Z,18.00
2023-05-25T06:31:17.198Z,15.77
2023-05-25T06:36:19.963Z,11.55
2023-05-25T06:41:22.054Z,15.68
2023-05-25T06:46:23.949Z,12.63
2023-05-25T06:51:27.517Z,17.20
2023-05-25T06:56:29.403Z,13.38
2023-05-25T07:01:31.252Z,11.43
2023-05-25T07:06:33.171Z,10.60
2023-05-25T07:11:34.984Z,15.25
2023-05-25T07:16:36.870Z,14.13
2023-05-25T07:21:38.755Z,11.88
2023-05-25T07:26:40.948Z,20.50
2023-05-25T07:31:42.939Z,17.58
2023-05-25T07:36:44.838Z,11.07
2023-05-25T07:41:46.673Z,10.43
2023-05-25T07:46:48.776Z,13.73
2023-05-25T07:51:50.895Z,15.63
2023-05-25T07:56:52.845Z,10.27
2023-05-25T08:01:54.727Z,10.80
2023-05-25T08:06:57.250Z,10.70
2023-05-25T08:12:13.445Z,17.15
2023-05-25T08:17:22.276Z,12.15
2023-05-25T08:22:24.298Z,21.38
2023-05-25T08:27:26.117Z,15.40
2023-05-25T08:32:28.052Z,11.45
2023-05-25T08:37:30.540Z,16.45
2023-05-25T08:42:32.471Z,19.33
2023-05-25T08:47:40.440Z,11.40
2023-05-25T08:52:46.959Z,16.83
2023-05-25T08:57:55.812Z,15.68
2023-05-25T09:03:18.126Z,16.20
2023-05-25T09:08:21.790Z,13.50
2023-05-25T09:13:23.822Z,12.35
2023-05-25T09:18:26.108Z,17.55
2023-05-25T09:23:28.055Z,11.25
2023-05-25T09:28:29.884Z,12.82
2023-05-25T09:33:31.717Z,10.10
2023-05-25T09:38:33.983Z,10.20
2023-05-25T09:43:44.651Z,11.55
2023-05-25T09:48:53.459Z,7.63
2023-05-25T09:53:55.996Z,10.13
2023-05-25T09:58:58.040Z,9.68
2023-05-25T10:04:05.351Z,8.07
2023-05-25T10:09:11.434Z,5.55
2023-05-25T10:14:17.494Z,11.85
2023-05-25T10:19:22.880Z,6.47
2023-05-25T10:25:03.489Z,9.23
2023-05-25T10:35:09.009Z,8.75
2023-05-25T10:40:11.375Z,5.10
2023-05-25T10:45:13.850Z,8.73
2023-05-25T10:50:38.975Z,7.43
2023-05-25T10:55:52.664Z,7.20
2023-05-25T11:01:03.969Z,3.40
2023-05-25T11:06:06.184Z,6.50
2023-05-25T11:11:07.980Z,5.55
2023-05-25T11:16:20.404Z,5.85
2023-05-25T11:21:28.996Z,7.10
2023-05-25T11:26:32.684Z,4.55
2023-05-25T11:31:41.400Z,6.88
2023-05-25T11:36:45.674Z,7.05
2023-05-25T11:41:54.673Z,5.88
2023-05-25T11:46:57.864Z,9.32
2023-05-25T11:52:03.783Z,11.13
2023-05-25T11:57:13.163Z,12.40
2023-05-25T12:02:14.948Z,11.82
2023-05-25T12:07:16.915Z,6.88
2023-05-25T12:12:19.928Z,5.95
2023-05-25T12:17:22.564Z,7.18
2023-05-25T12:22:24.546Z,11.55
2023-05-25T12:27:26.841Z,4.95
2023-05-25T12:32:28.774Z,6.25
2023-05-25T12:37:30.886Z,9.57
2023-05-25T12:42:34.386Z,7.55
2023-05-25T12:47:38.627Z,6.68
2023-05-25T12:52:44.332Z,6.28
2023-05-25T12:57:47.562Z,11.15
2023-05-25T13:02:50.636Z,11.38
2023-05-25T13:07:54.705Z,9.80
2023-05-25T13:12:58.455Z,9.43
2023-05-25T13:18:00.636Z,9.35
2023-05-25T13:23:03.375Z,9.25
2023-05-25T13:28:06.543Z,5.20
2023-05-25T13:33:08.487Z,7.93
2023-05-25T13:38:10.659Z,7.00
2023-05-25T13:43:12.465Z,9.25
2023-05-25T13:48:14.256Z,5.85
2023-05-25T13:53:16.343Z,6.70
2023-05-25T13:58:18.196Z,6.47
2023-05-25T14:03:20.121Z,8.18
2023-05-25T14:08:22.139Z,6.95
2023-05-25T14:13:23.958Z,9.00
2023-05-25T14:18:25.857Z,6.20
2023-05-25T14:23:27.665Z,6.45
2023-05-25T14:28:29.453Z,6.72
2023-05-25T14:33:31.239Z,8.32
2023-05-25T14:38:33.138Z,8.55
2023-05-25T14:43:35.041Z,7.10
2023-05-25T14:48:36.970Z,6.70
2023-05-25T14:53:38.852Z,8.00
2023-05-25T14:58:41.399Z,6.93
2023-05-25T15:03:43.313Z,7.65
2023-05-25T15:08:45.336Z,7.57
2023-05-25T15:13:47.253Z,8.55
2023-05-25T15:18:49.211Z,8.50
2023-05-25T15:23:51.331Z,6.82
2023-05-25T15:28:53.293Z,6.97
2023-05-25T15:33:58.990Z,6.68
2023-05-25T15:39:01.564Z,4.78
2023-05-25T15:44:03.502Z,7.97
2023-05-25T15:49:10.929Z,7.25
2023-05-25T15:54:14.709Z,6.70
2023-05-25T15:59:16.798Z,6.18
2023-05-25T16:04:19.264Z,9.93
2023-05-25T16:09:21.280Z,11.07
2023-05-25T16:14:23.161Z,5.15
2023-05-25T16:19:24.957Z,11.98
2023-05-25T16:24:27.264Z,12.45
2023-05-25T16:29:29.446Z,7.53
2023-05-25T16:34:31.278Z,11.23
2023-05-25T16:39:33.449Z,15.52
2023-05-25T16:44:35.347Z,9.30
2023-05-25T16:49:37.202Z,10.75
2023-05-25T16:54:39.016Z,10.10
2023-05-25T16:59:40.991Z,10.02
2023-05-25T17:04:42.911Z,9.63
2023-05-25T17:09:44.739Z,8.13
2023-05-25T17:14:46.531Z,8.52
2023-05-25T17:19:48.415Z,7.20
2023-05-25T17:24:50.267Z,14.95
2023-05-25T17:29:52.169Z,9.27
2023-05-25T17:34:54.021Z,6.75
2023-05-25T17:39:55.842Z,7.78
2023-05-25T17:44:57.980Z,11.70
2023-05-25T17:49:59.784Z,9.75
2023-05-25T17:55:01.582Z,8.65
2023-05-25T18:00:04.053Z,10.32
2023-05-25T18:05:06.367Z,9.45
2023-05-25T18:10:08.792Z,10.15
2023-05-25T18:15:10.794Z,7.88
2023-05-25T18:20:12.843Z,4.47
2023-05-25T18:25:14.981Z,9.98
2023-05-25T18:30:17.105Z,8.73
2023-05-25T18:35:18.947Z,7.30
2023-05-25T18:40:20.858Z,7.30
2023-05-25T18:45:22.705Z,8.20
2023-05-25T18:50:24.506Z,7.43
2023-05-25T18:55:26.355Z,7.28
2023-05-25T19:00:28.541Z,12.65
2023-05-25T19:05:30.397Z,14.68
2023-05-25T19:10:32.283Z,12.70
2023-05-25T19:15:35.921Z,10.05
2023-05-25T19:20:37.815Z,16.63
2023-05-25T19:25:39.731Z,9.30
2023-05-25T19:30:41.771Z,15.43
2023-05-25T19:35:43.881Z,9.68
2023-05-25T19:40:45.920Z,10.25
2023-05-25T19:45:48.019Z,10.15
2023-05-25T19:50:49.899Z,16.48
2023-05-25T19:55:51.770Z,8.65
2023-05-25T20:00:53.878Z,13.57
2023-05-25T20:05:56.533Z,8.60
2023-05-25T20:10:58.425Z,8.55
2023-05-25T20:16:00.386Z,8.40
2023-05-25T20:21:02.236Z,9.07
2023-05-25T20:26:04.043Z,10.32
2023-05-25T20:31:06.549Z,11.25
2023-05-25T20:36:08.427Z,5.85
2023-05-25T20:41:10.343Z,13.77
2023-05-25T20:46:12.221Z,13.90
2023-05-25T20:51:14.385Z,11.32
2023-05-25T20:56:17.929Z,15.60
2023-05-25T21:01:19.834Z,14.27
2023-05-25T21:06:22.728Z,15.38
2023-05-25T21:11:26.216Z,25.52
2023-05-25T21:16:28.136Z,22.08
2023-05-25T21:21:33.977Z,23.70
2023-05-25T21:26:35.878Z,18.65
2023-05-25T21:31:37.814Z,20.33
2023-05-25T21:36:39.657Z,19.15
2023-05-25T21:41:42.944Z,21.10
2023-05-25T21:46:44.825Z,23.35
2023-05-25T21:51:46.665Z,18.75
2023-05-25T21:56:48.456Z,23.08
2023-05-25T22:01:50.476Z,20.45
2023-05-25T22:06:52.419Z,23.27
2023-05-25T22:11:54.224Z,21.05
2023-05-25T22:16:56.104Z,27.55
2023-05-25T22:21:57.934Z,30.58
2023-05-25T22:26:59.733Z,25.60
2023-05-25T22:32:01.526Z,23.60
2023-05-25T22:37:04.765Z,25.45
2023-05-25T22:42:07.113Z,28.80
2023-05-25T22:47:08.942Z,18.83
2023-05-25T22:52:10.918Z,26.95
2023-05-25T22:57:12.752Z,16.08
2023-05-25T23:02:14.597Z,27.02
2023-05-25T23:07:16.496Z,26.83
2023-05-25T23:12:18.373Z,22.40
2023-05-25T23:17:21.846Z,25.52
2023-05-25T23:22:23.720Z,31.50
2023-05-25T23:27:25.801Z,26.52
2023-05-25T23:32:27.629Z,23.38
2023-05-25T23:37:29.523Z,23.80
2023-05-25T23:42:38.586Z,26.77
2023-05-25T23:47:40.557Z,23.85
2023-05-25T23:52:42.468Z,19.58
2023-05-25T23:57:44.429Z,22.58
